Time;durP1;ratioP1;P1;durP2;ratioP2;P2;SDS_P1;SDS_P2;PMS_P1;PMS_P2;Temp;Humidity;BMP_temperature;BMP_pressure;BME280_temperature;BME280_humidity;BME280_pressure;Samples;Min_cycle;Max_cycle;Signal;HPM_P1;HPM_P2
2022/07/20 00:00:49;;;;;;;10.50;5.80;;;;;;;23.64;51.80;99302.09;4970609;28;20452;-87
2022/07/20 00:03:17;;;;;;;6.90;5.70;;;;;;;23.67;51.96;99305.44;4970177;28;20487;-88
2022/07/20 00:05:43;;;;;;;5.53;5.03;;;;;;;23.65;52.04;99294.88;4970185;28;20211;-88
2022/07/20 00:08:10;;;;;;;5.90;4.77;;;;;;;23.60;52.17;99303.53;4948199;28;22263;-87
2022/07/20 00:13:21;;;;;;;5.73;5.23;;;;;;;23.44;52.86;99303.75;4966990;28;20465;-88
2022/07/20 00:15:47;;;;;;;5.93;5.40;;;;;;;23.40;52.90;99305.94;4966626;28;20457;-88
2022/07/20 00:18:15;;;;;;;5.60;5.13;;;;;;;23.36;52.83;99307.38;4966076;28;20473;-88
2022/07/20 00:20:41;;;;;;;5.03;4.70;;;;;;;23.32;53.11;99308.75;4964964;28;20449;-87
2022/07/20 00:23:10;;;;;;;6.37;5.07;;;;;;;23.27;53.36;99300.44;4965784;28;20529;-87
2022/07/20 00:25:37;;;;;;;6.33;5.20;;;;;;;23.23;53.46;99314.41;4965018;28;20300;-86
2022/07/20 00:28:03;;;;;;;8.67;5.10;;;;;;;23.16;53.52;99312.44;4964980;28;20557;-86
2022/07/20 00:30:29;;;;;;;7.27;5.80;;;;;;;23.11;53.74;99314.84;4966565;28;20288;-87
2022/07/20 00:32:54;;;;;;;6.17;5.30;;;;;;;23.12;54.02;99308.50;4965330;28;20572;-87
2022/07/20 00:35:20;;;;;;;6.40;5.00;;;;;;;23.10;54.34;99309.69;4966772;28;20209;-87
2022/07/20 00:37:45;;;;;;;11.13;5.90;;;;;;;23.01;54.38;99322.38;4965980;28;20287;-87
2022/07/20 00:40:13;;;;;;;6.07;5.27;;;;;;;22.93;54.60;99311.72;4965020;28;20798;-87
2022/07/20 00:42:39;;;;;;;7.43;5.70;;;;;;;22.87;55.07;99315.09;4966653;28;20211;-86
2022/07/20 00:45:07;;;;;;;5.00;4.60;;;;;;;22.77;55.58;99314.56;4966870;28;20462;-88
2022/07/20 00:47:33;;;;;;;6.03;5.53;;;;;;;22.71;55.72;99313.44;4966215;28;20541;-86
2022/07/20 00:49:58;;;;;;;6.40;5.67;;;;;;;22.65;56.19;99306.97;4971264;28;20994;-87
2022/07/20 00:52:26;;;;;;;5.90;5.40;;;;;;;22.62;56.46;99310.00;4973820;28;20201;-86
2022/07/20 00:54:55;;;;;;;6.53;6.00;;;;;;;22.59;56.81;99320.25;4951197;28;20296;-87
2022/07/20 00:57:23;;;;;;;5.83;5.20;;;;;;;22.49;57.22;99312.47;4953925;28;21120;-86
2022/07/20 00:59:56;;;;;;;7.13;5.13;;;;;;;22.35;57.35;99315.97;4950199;28;20461;-87
2022/07/20 01:02:24;;;;;;;5.97;5.30;;;;;;;22.28;57.41;99322.03;4968117;28;20558;-87
2022/07/20 01:04:51;;;;;;;6.33;5.40;;;;;;;22.26;57.67;99318.72;4950617;28;20459;-87
2022/07/20 01:07:17;;;;;;;6.40;5.70;;;;;;;22.26;57.52;99315.22;4968230;28;20470;-87
2022/07/20 01:09:48;;;;;;;6.90;5.70;;;;;;;22.27;57.46;99315.00;4969387;28;20498;-88
2022/07/20 01:12:14;;;;;;;5.40;4.90;;;;;;;22.27;57.51;99314.19;4968442;28;20519;-87
2022/07/20 01:14:39;;;;;;;6.00;5.40;;;;;;;22.27;57.50;99319.53;4968629;28;21025;-87
2022/07/20 01:17:07;;;;;;;5.83;5.33;;;;;;;22.26;57.48;99324.06;4969230;28;20211;-88
2022/07/20 01:19:33;;;;;;;5.60;5.10;;;;;;;22.26;57.78;99320.56;4968886;28;20462;-87
2022/07/20 01:21:58;;;;;;;5.53;5.03;;;;;;;22.19;58.06;99323.09;4967673;28;20235;-87
2022/07/20 01:24:27;;;;;;;7.23;5.97;;;;;;;22.04;58.27;99317.69;4966608;28;20207;-86
2022/07/20 01:26:52;;;;;;;5.80;5.20;;;;;;;21.90;58.52;99329.16;4966375;28;20662;-87
2022/07/20 01:29:17;;;;;;;4.80;4.40;;;;;;;21.79;58.66;99330.41;4965964;28;20549;-88
2022/07/20 01:31:51;;;;;;;6.20;5.60;;;;;;;21.71;58.85;99327.78;4971883;28;20246;-88
2022/07/20 01:34:18;;;;;;;6.82;5.95;;;;;;;21.70;59.39;99335.97;4966469;28;20486;-88
2022/07/20 01:36:46;;;;;;;6.53;6.03;;;;;;;21.63;59.28;99333.16;4973079;28;20219;-87
2022/07/20 01:39:25;;;;;;;6.53;5.73;;;;;;;21.62;59.04;99331.47;4967537;28;20848;-88
2022/07/20 01:41:53;;;;;;;5.27;4.87;;;;;;;21.61;59.08;99340.53;4968649;28;20984;-87
2022/07/20 01:44:22;;;;;;;6.60;6.00;;;;;;;21.62;59.11;99347.53;4978969;28;20451;-87
2022/07/20 01:46:48;;;;;;;12.10;5.70;;;;;;;21.61;59.26;99341.34;4987266;28;20453;-88
2022/07/20 01:49:15;;;;;;;6.90;6.20;;;;;;;21.61;59.23;99345.88;4987280;28;20449;-87
2022/07/20 01:51:42;;;;;;;6.33;5.73;;;;;;;21.57;59.23;99348.03;4989200;28;20461;-87
2022/07/20 01:54:10;;;;;;;5.63;5.13;;;;;;;21.52;59.34;99352.25;4985735;28;20561;-88
2022/07/20 01:56:35;;;;;;;6.80;6.07;;;;;;;21.52;59.15;99347.75;4987655;28;20567;-88
2022/07/20 01:59:01;;;;;;;6.20;5.20;;;;;;;21.52;58.86;99352.25;4990667;28;20573;-87
2022/07/20 02:01:39;;;;;;;8.10;6.13;;;;;;;21.53;59.06;99353.94;4987653;28;20214;-87
2022/07/20 02:04:05;;;;;;;6.93;6.13;;;;;;;21.55;59.45;99365.25;4989550;28;20481;-87
2022/07/20 02:06:31;;;;;;;6.67;5.50;;;;;;;21.51;59.53;99367.44;4989525;28;20229;-89
2022/07/20 02:08:59;;;;;;;9.57;6.33;;;;;;;21.45;59.78;99364.66;4991791;28;20913;-87
2022/07/20 02:11:25;;;;;;;6.77;6.07;;;;;;;21.38;59.66;99367.16;4988711;28;20249;-88
2022/07/20 02:13:52;;;;;;;5.87;5.37;;;;;;;21.28;59.95;99356.66;4985657;28;20473;-88
2022/07/20 02:16:19;;;;;;;7.63;5.20;;;;;;;21.23;60.21;99360.88;4991790;28;20985;-89
2022/07/20 02:18:52;;;;;;;5.50;5.10;;;;;;;21.17;59.79;99365.88;4991288;28;20225;-88
2022/07/20 02:21:18;;;;;;;6.27;5.67;;;;;;;21.15;59.75;99367.88;4991834;28;20452;-88
2022/07/20 02:23:44;;;;;;;5.90;5.40;;;;;;;21.12;59.45;99360.22;4984392;28;20480;-89
2022/07/20 02:26:10;;;;;;;5.83;5.27;;;;;;;21.03;59.51;99353.22;4970416;28;20499;-88
2022/07/20 02:29:04;;;;;;;6.27;5.27;;;;;;;21.00;59.49;99351.72;4970901;28;20484;-88
2022/07/20 02:31:32;;;;;;;10.00;6.50;;;;;;;20.99;59.35;99359.94;4964272;28;20697;-88
2022/07/20 02:33:58;;;;;;;10.15;6.88;;;;;;;21.00;59.78;99354.41;4971770;28;20963;-89
2022/07/20 02:36:26;;;;;;;6.03;5.40;;;;;;;20.97;59.66;99346.72;4952033;28;20256;-90
2022/07/20 02:38:59;;;;;;;7.37;5.10;;;;;;;20.91;59.87;99344.75;4971295;28;20464;-89
2022/07/20 02:41:29;;;;;;;6.83;5.87;;;;;;;20.87;59.96;99356.75;4976581;28;20597;-88
2022/07/20 02:43:54;;;;;;;6.53;5.93;;;;;;;20.93;60.05;99352.59;4974967;28;20468;-88
2022/07/20 02:46:20;;;;;;;6.93;6.23;;;;;;;20.95;59.90;99354.09;4971813;28;20469;-88
2022/07/20 02:48:45;;;;;;;6.37;5.83;;;;;;;20.92;60.00;99351.75;4973214;28;20265;-88
2022/07/20 02:51:11;;;;;;;7.43;6.73;;;;;;;20.93;59.77;99348.09;4973896;28;20576;-87
2022/07/20 02:53:41;;;;;;;7.30;6.53;;;;;;;20.84;60.19;99341.09;4957527;28;20212;-87
2022/07/20 02:56:06;;;;;;;5.90;5.07;;;;;;;20.82;60.11;99339.59;4970978;28;20449;-88
2022/07/20 02:58:32;;;;;;;7.70;6.57;;;;;;;20.85;59.94;99339.28;4970883;28;20970;-87
2022/07/20 03:00:58;;;;;;;5.47;4.97;;;;;;;20.85;59.74;99333.94;4970262;28;20201;-88
2022/07/20 03:03:25;;;;;;;5.67;5.17;;;;;;;20.87;59.49;99339.91;4964986;28;20212;-88
2022/07/20 03:05:51;;;;;;;6.03;5.43;;;;;;;20.93;59.17;99347.28;4968098;28;20461;-88
2022/07/20 03:08:16;;;;;;;5.87;5.37;;;;;;;20.99;58.90;99339.38;4967903;28;20243;-89
2022/07/20 03:10:42;;;;;;;8.43;5.50;;;;;;;20.99;58.86;99341.22;4965306;28;20328;-89
2022/07/20 03:13:08;;;;;;;6.07;5.47;;;;;;;20.94;58.90;99344.41;4967378;28;20672;-90
2022/07/20 03:15:33;;;;;;;7.93;6.10;;;;;;;20.94;59.12;99352.41;4967134;28;20206;-88
2022/07/20 03:17:59;;;;;;;5.10;4.67;;;;;;;20.91;59.38;99349.28;4967384;28;20707;-88
2022/07/20 03:20:32;;;;;;;8.03;7.23;;;;;;;20.88;59.48;99349.63;4967237;28;20202;-88
2022/07/20 03:23:07;;;;;;;6.23;5.30;;;;;;;20.82;59.72;99358.28;4966597;28;20232;-88
2022/07/20 03:25:32;;;;;;;6.27;5.00;;;;;;;20.80;59.70;99352.28;4966513;28;20457;-87
2022/07/20 03:27:59;;;;;;;5.83;5.33;;;;;;;20.78;59.98;99357.78;4967290;28;20477;-88
2022/07/20 03:30:27;;;;;;;5.70;4.70;;;;;;;20.75;60.30;99350.13;4949196;28;20580;-88
2022/07/20 03:32:54;;;;;;;5.73;4.90;;;;;;;20.71;60.05;99348.78;4967165;28;20464;-88
2022/07/20 03:35:24;;;;;;;6.70;5.60;;;;;;;20.71;60.16;99343.44;4972013;28;20498;-87
2022/07/20 03:37:50;;;;;;;6.10;5.53;;;;;;;20.70;60.19;99357.81;4979505;28;20461;-89
2022/07/20 03:40:18;;;;;;;6.40;5.10;;;;;;;20.68;60.29;99355.28;4968458;28;20789;-89
2022/07/20 03:42:46;;;;;;;5.70;5.10;;;;;;;20.68;60.33;99357.97;4966858;28;20215;-89
2022/07/20 03:45:11;;;;;;;139.27;130.20;;;;;;;20.71;60.27;99360.31;4967283;28;21009;-88
2022/07/20 03:47:37;;;;;;;154.80;125.17;;;;;;;20.71;60.36;99360.31;4966609;28;20469;-88
2022/07/20 03:50:03;;;;;;;8.57;7.77;;;;;;;20.66;60.50;99357.31;4965877;28;20228;-88
2022/07/20 03:52:33;;;;;;;8.27;6.87;;;;;;;20.63;60.65;99362.13;4966875;28;20626;-88
2022/07/20 03:55:06;;;;;;;10.93;7.97;;;;;;;20.59;60.78;99350.16;4966089;28;20465;-89
2022/07/20 03:57:39;;;;;;;8.70;7.83;;;;;;;20.58;60.67;99354.66;4965161;28;20453;-89
2022/07/20 04:00:06;;;;;;;10.63;8.50;;;;;;;20.58;60.65;99365.34;4965666;28;20503;-89
2022/07/20 04:02:34;;;;;;;12.32;9.90;;;;;;;20.64;61.00;99363.81;4964611;28;20497;-88
2022/07/20 04:05:02;;;;;;;11.43;10.10;;;;;;;20.68;60.81;99355.28;4967044;28;20216;-88
2022/07/20 04:07:28;;;;;;;17.57;12.23;;;;;;;20.76;60.57;99367.78;4966352;28;20529;-88
2022/07/20 04:09:56;;;;;;;12.73;11.43;;;;;;;20.80;60.48;99371.81;4964023;28;20496;-88
2022/07/20 04:12:24;;;;;;;13.23;10.23;;;;;;;20.85;60.24;99369.47;4965669;28;20432;-88
2022/07/20 04:14:51;;;;;;;13.97;10.10;;;;;;;20.86;60.20;99376.47;4965950;28;20638;-85
2022/07/20 04:17:18;;;;;;;11.70;9.37;;;;;;;20.83;60.16;99376.81;4965958;28;21226;-85
2022/07/20 04:19:43;;;;;;;11.87;7.47;;;;;;;20.82;60.16;99379.63;4948593;28;20483;-86
2022/07/20 04:22:09;;;;;;;9.50;8.60;;;;;;;20.80;60.09;99379.81;4965402;28;20921;-86
2022/07/20 04:24:46;;;;;;;8.50;6.70;;;;;;;20.82;59.99;99383.16;4965525;28;20209;-86
2022/07/20 04:27:19;;;;;;;8.27;7.47;;;;;;;20.90;59.66;99383.16;4965323;28;20526;-83
2022/07/20 04:29:45;;;;;;;10.40;8.00;;;;;;;21.00;59.23;99383.78;4965272;28;20454;-86
2022/07/20 04:32:10;;;;;;;8.77;7.40;;;;;;;21.07;59.20;99391.94;4964927;28;21381;-85
2022/07/20 04:34:43;;;;;;;7.70;6.90;;;;;;;21.16;58.97;99393.59;4966053;28;20263;-86
2022/07/20 04:37:18;;;;;;;10.23;8.40;;;;;;;21.23;58.72;99385.75;4965122;28;20205;-85
2022/07/20 04:39:46;;;;;;;10.17;9.07;;;;;;;21.29;58.07;99394.91;4963158;28;20563;-86
2022/07/20 04:42:14;;;;;;;10.33;8.90;;;;;;;21.39;58.01;99400.91;4963856;28;20797;-86
2022/07/20 04:44:40;;;;;;;9.00;6.20;;;;;;;21.50;57.70;99397.88;4963008;28;20448;-89
2022/07/20 04:47:05;;;;;;;8.97;6.17;;;;;;;21.56;57.17;99396.34;4946493;28;20204;-88
2022/07/20 04:49:31;;;;;;;9.13;7.13;;;;;;;21.62;57.13;99393.78;4964573;28;20214;-89
2022/07/20 04:51:56;;;;;;;8.13;6.80;;;;;;;21.71;56.62;99386.59;4945880;28;20217;-89
2022/07/20 04:54:22;;;;;;;6.57;5.97;;;;;;;22.11;55.26;99395.34;4963782;28;20196;-86
2022/07/20 04:56:48;;;;;;;6.70;5.90;;;;;;;22.52;53.86;99392.41;4966515;28;20342;-87
2022/07/20 04:59:16;;;;;;;7.43;6.60;;;;;;;23.33;51.37;99389.97;4969711;28;20469;-88
2022/07/20 05:01:42;;;;;;;6.20;5.60;;;;;;;24.31;48.60;99387.84;4970511;28;20229;-88
2022/07/20 05:04:19;;;;;;;8.82;6.70;;;;;;;25.25;45.43;99376.84;4971527;28;20496;-88
2022/07/20 05:06:44;;;;;;;6.13;4.83;;;;;;;25.77;44.33;99381.63;4971730;28;20208;-89
2022/07/20 05:09:10;;;;;;;6.83;5.63;;;;;;;25.96;43.79;99382.75;4972456;28;20800;-88
2022/07/20 05:11:37;;;;;;;8.10;4.90;;;;;;;26.31;42.92;99390.72;4962156;28;20229;-88
2022/07/20 05:14:08;;;;;;;5.30;4.80;;;;;;;27.09;41.40;99388.22;4962028;28;20214;-88
2022/07/20 05:16:41;;;;;;;9.80;5.50;;;;;;;28.04;39.01;99376.09;4966036;28;20449;-89
2022/07/20 05:19:14;;;;;;;7.70;4.80;;;;;;;28.82;37.48;99373.88;4964532;29;20474;-90
2022/07/20 05:21:40;;;;;;;7.50;6.30;;;;;;;29.42;36.25;99377.84;4948266;29;20217;-89
2022/07/20 05:24:06;;;;;;;7.10;6.10;;;;;;;30.07;35.06;99378.06;4946539;29;20477;-89
2022/07/20 05:26:34;;;;;;;5.07;4.50;;;;;;;30.73;33.89;99381.66;4943756;29;20470;-90
2022/07/20 05:29:00;;;;;;;9.20;5.10;;;;;;;31.20;33.28;99380.84;4950496;28;20458;-89
2022/07/20 05:31:28;;;;;;;6.17;5.50;;;;;;;31.44;32.83;99382.47;4950424;28;20226;-90
2022/07/20 05:33:56;;;;;;;5.90;5.03;;;;;;;31.77;32.24;99382.88;4946820;29;20242;-90
2022/07/20 05:36:23;;;;;;;5.90;4.90;;;;;;;32.10;31.38;99379.44;4964850;28;20466;-90
2022/07/20 05:39:01;;;;;;;6.53;5.87;;;;;;;32.45;31.17;99383.84;4951312;28;20276;-91
2022/07/20 05:44:59;;;;;;;10.20;4.20;;;;;;;33.63;29.20;99390.00;4940538;29;20473;-90
2022/07/20 05:47:29;;;;;;;7.10;5.50;;;;;;;33.69;28.29;99390.88;4949221;28;20461;-91
2022/07/20 05:49:57;;;;;;;9.67;5.27;;;;;;;33.66;28.18;99394.91;4942701;28;20529;-89
2022/07/20 05:52:23;;;;;;;13.03;5.10;;;;;;;33.93;27.82;99397.69;4948717;28;20465;-91
2022/07/20 05:54:48;;;;;;;7.60;4.73;;;;;;;34.33;27.21;99396.47;4942998;28;20546;-91
2022/07/20 05:57:14;;;;;;;7.53;5.50;;;;;;;34.83;26.43;99397.16;4950804;28;20283;-91
2022/07/20 05:59:40;;;;;;;16.77;5.17;;;;;;;35.39;26.06;99400.25;4951244;29;20386;-89
2022/07/20 06:02:07;;;;;;;7.27;5.07;;;;;;;35.96;25.36;99405.97;4949927;29;20305;-89
2022/07/20 06:04:34;;;;;;;10.10;6.00;;;;;;;36.49;24.72;99403.88;4950776;28;20465;-91
2022/07/20 06:07:00;;;;;;;8.80;4.90;;;;;;;36.90;24.80;99406.63;4950797;29;20605;-90
2022/07/20 06:09:25;;;;;;;7.17;5.17;;;;;;;36.97;24.75;99407.97;4953597;28;20515;-88
2022/07/20 06:11:51;;;;;;;6.30;4.70;;;;;;;37.18;24.96;99410.69;4970661;28;20210;-91
2022/07/20 06:14:17;;;;;;;7.20;6.70;;;;;;;37.49;24.61;99402.38;4972262;28;20213;-87
2022/07/20 06:16:52;;;;;;;9.60;6.80;;;;;;;37.67;24.34;99411.91;4975309;28;20649;-90
2022/07/20 06:19:20;;;;;;;6.27;5.67;;;;;;;37.94;23.50;99403.25;4970504;28;20677;-91
2022/07/20 06:21:55;;;;;;;6.93;6.40;;;;;;;38.09;23.24;99411.44;4967947;28;20448;-90
2022/07/20 06:24:21;;;;;;;11.33;7.20;;;;;;;38.21;23.10;99411.06;4967458;28;20461;-88
2022/07/20 06:26:46;;;;;;;6.50;5.90;;;;;;;38.31;23.19;99411.00;4967719;28;20727;-89
2022/07/20 06:29:15;;;;;;;11.83;8.03;;;;;;;38.61;22.65;99407.22;4969461;28;20618;-90
2022/07/20 06:31:42;;;;;;;11.50;7.90;;;;;;;38.79;22.48;99408.44;4966917;28;20206;-89
2022/07/20 06:34:08;;;;;;;7.50;6.87;;;;;;;38.76;22.26;99400.78;4969242;28;20445;-86
2022/07/20 06:36:39;;;;;;;8.27;7.57;;;;;;;38.46;22.74;99423.84;4967593;28;20453;-89
2022/07/20 06:39:05;;;;;;;9.03;8.13;;;;;;;38.42;22.64;99417.25;4963008;28;20561;-87
2022/07/20 06:41:34;;;;;;;11.20;8.23;;;;;;;38.36;22.48;99419.19;4967085;28;20517;-89
2022/07/20 06:44:03;;;;;;;9.07;8.13;;;;;;;38.35;22.38;99427.69;4948457;28;20225;-89
2022/07/20 06:46:28;;;;;;;8.20;7.40;;;;;;;38.38;22.94;99424.41;4967339;28;20641;-90
2022/07/20 06:48:54;;;;;;;10.03;8.80;;;;;;;38.55;22.48;99424.84;4967671;28;20841;-87
2022/07/20 06:51:24;;;;;;;9.70;8.60;;;;;;;38.66;22.18;99431.06;4962563;28;20226;-87
2022/07/20 06:53:52;;;;;;;9.80;7.90;;;;;;;38.70;22.32;99423.91;4966525;28;20210;-88
2022/07/20 06:56:18;;;;;;;9.77;8.73;;;;;;;38.74;22.10;99430.44;4966985;28;20465;-88
2022/07/20 06:58:43;;;;;;;9.93;8.93;;;;;;;38.87;22.20;99421.56;4963225;28;20880;-88
2022/07/20 07:01:09;;;;;;;9.20;8.40;;;;;;;38.84;22.19;99433.09;4964542;28;20268;-88
2022/07/20 07:03:38;;;;;;;9.83;9.07;;;;;;;38.84;22.09;99435.84;4964018;28;20202;-87
2022/07/20 07:06:04;;;;;;;9.37;8.60;;;;;;;38.72;22.05;99421.66;4963199;28;20481;-88
2022/07/20 07:08:29;;;;;;;8.90;8.00;;;;;;;38.59;22.19;99423.19;4963931;28;20512;-89
2022/07/20 07:10:57;;;;;;;8.10;7.50;;;;;;;38.51;22.12;99429.28;4964207;28;20233;-88
2022/07/20 07:13:22;;;;;;;10.13;9.00;;;;;;;38.43;22.35;99430.72;4962511;28;20464;-89
2022/07/20 07:15:48;;;;;;;9.33;8.57;;;;;;;38.51;22.12;99429.28;4962673;28;20273;-89
2022/07/20 07:18:13;;;;;;;9.20;8.30;;;;;;;38.60;21.97;99433.03;4962310;28;20230;-87
2022/07/20 07:20:39;;;;;;;15.20;8.83;;;;;;;38.58;22.24;99428.94;4964017;28;20276;-88
2022/07/20 07:23:04;;;;;;;9.43;8.53;;;;;;;38.74;21.87;99434.00;4963565;28;20233;-89
2022/07/20 07:25:30;;;;;;;8.93;8.13;;;;;;;38.77;21.97;99435.34;4962829;28;20604;-87
2022/07/20 07:27:56;;;;;;;9.60;8.70;;;;;;;38.68;22.10;99431.59;4961824;28;20237;-88
2022/07/20 07:30:21;;;;;;;10.03;9.17;;;;;;;38.77;22.11;99432.59;4963309;28;20228;-87
2022/07/20 07:32:47;;;;;;;11.73;8.83;;;;;;;38.84;21.86;99440.53;4964764;28;20266;-89
2022/07/20 07:35:12;;;;;;;10.13;9.17;;;;;;;39.08;21.59;99448.84;4946618;28;20202;-86
2022/07/20 07:37:47;;;;;;;10.13;9.10;;;;;;;38.99;21.78;99445.88;4964448;28;20214;-88
2022/07/20 07:40:15;;;;;;;11.27;9.00;;;;;;;39.06;21.65;99449.13;4964088;28;20213;-89
2022/07/20 07:42:41;;;;;;;10.10;9.20;;;;;;;39.09;21.61;99447.72;4963598;28;20591;-90
2022/07/20 07:45:08;;;;;;;10.20;9.07;;;;;;;39.00;21.91;99450.28;4964376;28;20547;-89
2022/07/20 07:47:34;;;;;;;10.60;9.57;;;;;;;39.12;21.84;99447.13;4964165;28;20222;-87
2022/07/20 07:50:03;;;;;;;9.67;8.87;;;;;;;39.44;21.60;99448.47;4954823;28;20548;-87
2022/07/20 07:52:28;;;;;;;11.60;10.40;;;;;;;39.58;21.37;99443.91;4963735;28;20883;-88
2022/07/20 07:54:56;;;;;;;11.13;9.67;;;;;;;39.60;21.82;99444.44;4959712;28;20762;-88
2022/07/20 07:57:22;;;;;;;12.30;11.30;;;;;;;39.81;21.26;99447.78;4962499;28;20202;-88
2022/07/20 07:59:47;;;;;;;12.73;11.43;;;;;;;39.96;21.39;99455.81;4963626;28;20842;-90
2022/07/20 08:02:13;;;;;;;12.03;10.87;;;;;;;39.75;21.69;99462.66;4964660;28;20576;-89
2022/07/20 08:04:38;;;;;;;14.20;12.43;;;;;;;39.47;22.27;99458.88;4969087;28;20214;-89
2022/07/20 08:07:04;;;;;;;13.40;12.23;;;;;;;39.41;22.47;99455.38;4971154;28;20217;-87
2022/07/20 08:09:29;;;;;;;15.17;13.43;;;;;;;39.27;22.66;99466.22;4971019;28;20209;-89
2022/07/20 08:11:55;;;;;;;21.70;13.10;;;;;;;38.39;23.83;99462.53;4954326;28;20232;-89
2022/07/20 08:14:20;;;;;;;15.20;13.13;;;;;;;38.15;24.05;99456.09;4979362;28;20237;-88
2022/07/20 08:16:49;;;;;;;14.57;13.10;;;;;;;38.55;23.97;99451.47;4981779;28;20210;-88
2022/07/20 08:19:14;;;;;;;18.03;14.57;;;;;;;38.69;23.66;99467.00;4962303;28;20224;-87
2022/07/20 08:21:40;;;;;;;16.57;14.93;;;;;;;38.92;23.68;99465.47;4962279;28;20819;-88
2022/07/20 08:24:08;;;;;;;17.30;14.13;;;;;;;39.20;23.49;99462.19;4961040;28;20260;-86
2022/07/20 08:26:34;;;;;;;15.00;13.60;;;;;;;39.65;23.14;99465.56;4960524;28;20734;-89
2022/07/20 08:28:59;;;;;;;17.07;15.37;;;;;;;39.44;23.44;99465.78;4962887;28;20507;-87
2022/07/20 08:31:25;;;;;;;17.03;15.30;;;;;;;39.35;23.61;99468.38;4962007;28;20579;-87
2022/07/20 08:33:50;;;;;;;18.70;16.25;;;;;;;39.33;24.06;99473.31;4948652;28;20525;-88
2022/07/20 08:36:18;;;;;;;17.40;15.40;;;;;;;39.25;24.22;99479.44;4962552;28;20198;-88
2022/07/20 08:38:44;;;;;;;16.70;15.10;;;;;;;38.66;25.11;99489.53;4961546;28;20519;-88
2022/07/20 08:41:11;;;;;;;17.37;15.57;;;;;;;37.91;26.00;99500.59;4962641;28;20965;-88
2022/07/20 08:43:36;;;;;;;17.50;15.80;;;;;;;37.06;27.47;99504.09;4961521;28;20269;-88
2022/07/20 08:46:02;;;;;;;18.00;16.20;;;;;;;36.30;28.92;99504.78;4960985;28;20457;-90
2022/07/20 08:48:28;;;;;;;17.40;15.77;;;;;;;35.87;29.68;99499.41;4961436;28;20198;-87
2022/07/20 08:50:54;;;;;;;19.20;17.00;;;;;;;35.65;29.87;99493.31;4962485;28;20214;-87
2022/07/20 08:53:21;;;;;;;20.47;17.30;;;;;;;35.51;30.38;99509.28;4960598;28;20236;-89
2022/07/20 08:55:47;;;;;;;20.87;17.30;;;;;;;35.43;30.59;99501.59;4963662;28;20205;-90
2022/07/20 08:58:13;;;;;;;19.17;17.27;;;;;;;35.33;30.78;99504.28;4962693;28;20758;-86
2022/07/20 09:00:44;;;;;;;18.33;16.73;;;;;;;35.30;31.06;99497.44;4962891;28;20512;-89
2022/07/20 09:03:10;;;;;;;20.93;18.80;;;;;;;35.39;30.77;99493.13;4962394;28;20468;-89
2022/07/20 09:05:38;;;;;;;19.23;17.30;;;;;;;35.42;30.90;99495.31;4964006;28;20944;-88
2022/07/20 09:08:06;;;;;;;17.97;16.37;;;;;;;35.40;31.24;99499.41;4963024;28;20454;-85
2022/07/20 09:10:37;;;;;;;19.33;17.43;;;;;;;35.46;31.07;99498.38;4964215;28;20508;-86
2022/07/20 09:13:03;;;;;;;19.87;17.23;;;;;;;35.55;31.40;99496.75;4947294;28;20553;-86
2022/07/20 09:15:38;;;;;;;20.90;17.50;;;;;;;35.60;31.13;99499.56;4969396;28;20537;-89
2022/07/20 09:18:19;;;;;;;20.47;18.40;;;;;;;35.49;31.38;99503.28;4966752;28;20539;-87
2022/07/20 09:20:48;;;;;;;19.90;18.20;;;;;;;35.43;31.52;99507.06;4961966;28;20544;-85
2022/07/20 09:23:20;;;;;;;19.17;16.77;;;;;;;35.49;31.86;99502.47;4959681;28;20449;-87
2022/07/20 09:25:55;;;;;;;20.07;17.73;;;;;;;35.46;31.57;99499.19;4956688;28;20556;-86
2022/07/20 09:28:36;;;;;;;20.40;18.50;;;;;;;35.43;31.65;99515.25;4961226;28;20449;-88
2022/07/20 09:31:03;;;;;;;22.30;19.00;;;;;;;35.29;31.61;99512.16;4965864;28;20469;-86
2022/07/20 09:33:31;;;;;;;18.20;16.50;;;;;;;35.35;32.07;99507.56;4961818;28;20460;-87
2022/07/20 09:36:02;;;;;;;18.97;16.80;;;;;;;35.50;31.75;99512.31;4963405;28;20484;-87
2022/07/20 09:38:38;;;;;;;19.90;18.00;;;;;;;35.95;31.24;99509.03;4963017;28;20519;-86
2022/07/20 09:41:21;;;;;;;22.53;20.20;;;;;;;36.45;30.31;99520.41;4964951;28;20449;-87
2022/07/20 09:43:50;;;;;;;20.63;18.53;;;;;;;36.42;30.33;99512.75;4963609;28;21088;-87
2022/07/20 09:46:18;;;;;;;22.47;20.00;;;;;;;36.08;31.04;99511.28;4960364;28;20458;-86
2022/07/20 09:48:46;;;;;;;21.33;19.40;;;;;;;35.84;31.65;99521.00;4964497;28;20452;-86
2022/07/20 09:51:27;;;;;;;21.10;19.00;;;;;;;35.51;32.14;99513.94;4962873;28;20579;-88
2022/07/20 09:53:59;;;;;;;21.33;19.43;;;;;;;35.23;32.29;99518.69;4962011;28;20981;-86
2022/07/20 09:56:26;;;;;;;21.27;19.23;;;;;;;34.98;32.65;99516.56;4963378;28;20839;-86
2022/07/20 09:58:54;;;;;;;21.77;19.40;;;;;;;35.04;32.75;99529.16;4961647;28;20457;-86
2022/07/20 10:01:24;;;;;;;23.87;20.37;;;;;;;35.38;32.52;99528.91;4962346;28;20457;-86
2022/07/20 10:03:52;;;;;;;23.50;21.20;;;;;;;35.55;32.26;99534.19;4961236;28;20497;-89
2022/07/20 10:06:19;;;;;;;21.83;19.53;;;;;;;35.71;32.01;99535.97;4962667;28;20197;-86
2022/07/20 10:08:48;;;;;;;20.27;18.37;;;;;;;35.99;31.70;99533.91;4960458;28;20504;-89
2022/07/20 10:11:23;;;;;;;21.17;19.03;;;;;;;36.25;31.36;99532.13;4961166;28;20978;-86
2022/07/20 10:13:54;;;;;;;21.50;19.40;;;;;;;36.44;30.88;99538.75;4965437;28;20548;-87
2022/07/20 10:16:27;;;;;;;20.50;18.40;;;;;;;36.25;31.25;99529.38;4964879;28;20873;-86
2022/07/20 10:18:58;;;;;;;23.97;19.23;;;;;;;35.83;31.66;99539.28;4965790;28;20465;-87
2022/07/20 10:21:42;;;;;;;21.63;19.57;;;;;;;35.45;32.19;99540.41;4968986;28;20464;-87
2022/07/20 10:24:16;;;;;;;20.47;18.37;;;;;;;35.11;32.79;99537.16;4964611;28;20460;-85
2022/07/20 10:26:43;;;;;;;20.53;18.77;;;;;;;34.70;33.26;99550.41;4971975;28;20451;-87
2022/07/20 10:29:09;;;;;;;21.67;19.70;;;;;;;34.29;33.84;99545.28;4968176;28;20453;-86
2022/07/20 10:31:52;;;;;;;24.60;18.97;;;;;;;34.01;34.55;99545.47;4965393;28;20568;-86
2022/07/20 10:34:35;;;;;;;21.67;19.57;;;;;;;33.75;35.45;99550.56;4973008;28;20483;-88
2022/07/20 10:37:40;;;;;;;23.23;20.93;;;;;;;33.50;35.68;99551.81;4972629;28;21169;-87
2022/07/20 10:40:23;;;;;;;21.87;19.60;;;;;;;33.27;35.96;99569.19;4962389;28;20560;-85
2022/07/20 10:42:53;;;;;;;24.27;20.97;;;;;;;33.11;36.40;99563.72;4972105;28;20878;-86
2022/07/20 10:45:22;;;;;;;22.30;20.00;;;;;;;32.92;36.60;99568.53;4971315;28;20469;-86
2022/07/20 10:48:01;;;;;;;25.27;22.87;;;;;;;32.79;37.21;99573.22;4975578;28;20453;-86
2022/07/20 10:50:27;;;;;;;23.77;21.33;;;;;;;32.63;37.50;99579.44;4978842;28;20484;-87
2022/07/20 10:52:58;;;;;;;27.27;22.97;;;;;;;32.45;38.94;99579.59;4969965;28;20977;-86
2022/07/20 10:55:32;;;;;;;23.73;21.20;;;;;;;32.16;41.22;99574.13;4968824;28;20213;-87
2022/07/20 10:58:12;;;;;;;54.93;27.93;;;;;;;31.70;45.42;99575.78;4969340;28;20460;-88
2022/07/20 11:00:42;;;;;;;35.87;23.43;;;;;;;31.07;47.48;99575.34;4968650;28;20512;-88
2022/07/20 11:03:21;;;;;;;25.30;22.70;;;;;;;30.41;49.91;99571.69;4970680;28;20441;-88
2022/07/20 11:06:12;;;;;;;26.10;23.50;;;;;;;29.99;52.50;99551.72;4968379;28;20465;-89
2022/07/20 11:08:41;;;;;;;25.27;22.73;;;;;;;29.75;53.79;99527.19;4964839;28;20469;-89
2022/07/20 11:11:13;;;;;;;33.97;25.27;;;;;;;29.42;55.62;99521.28;4969902;28;20489;-88
2022/07/20 11:13:39;;;;;;;29.63;23.53;;;;;;;29.06;57.28;99528.25;4954965;28;20974;-88
2022/07/20 11:16:05;;;;;;;28.10;25.23;;;;;;;28.85;58.45;99551.03;4968916;28;20450;-89
2022/07/20 11:18:34;;;;;;;28.10;23.87;;;;;;;28.78;59.88;99583.50;4968949;28;20210;-88
2022/07/20 11:21:03;;;;;;;27.23;24.40;;;;;;;28.75;60.43;99585.81;4970465;28;20512;-88
2022/07/20 11:23:46;;;;;;;27.40;24.70;;;;;;;28.71;61.29;99584.59;4970412;28;20445;-89
2022/07/20 11:26:13;;;;;;;29.93;26.07;;;;;;;28.72;61.40;99584.38;4970382;28;21508;-87
2022/07/20 11:28:57;;;;;;;30.17;25.13;;;;;;;28.74;61.31;99585.00;4970537;28;20496;-88
2022/07/20 11:31:25;;;;;;;23.63;21.30;;;;;;;28.73;61.11;99579.78;4969993;28;20468;-87
2022/07/20 11:33:58;;;;;;;27.00;24.40;;;;;;;28.71;57.60;99582.72;4969416;28;20478;-86
2022/07/20 11:36:28;;;;;;;25.77;23.17;;;;;;;28.60;57.30;99576.13;4969084;28;20205;-87
2022/07/20 11:38:59;;;;;;;25.07;22.20;;;;;;;28.57;56.57;99562.19;4970267;28;20488;-87